Time;durP1;ratioP1;P1;durP2;ratioP2;P2;SDS_P1;SDS_P2;PMS_P1;PMS_P2;Temp;Humidity;BMP_temperature;BMP_pressure;BME280_temperature;BME280_humidity;BME280_pressure;Samples;Min_cycle;Max_cycle;Signal;HPM_P1;HPM_P2
2023/09/19 18:11:15;;;;;;;0.45;0.45;;;;;;;;;;7392680;19;20686;-84
2023/09/19 18:13:43;;;;;;;0.73;0.60;;;;;;;;;;7386693;19;20373;-84
2023/09/19 18:16:10;;;;;;;0.50;0.50;;;;;;;;;;7385081;19;20436;-86
2023/09/19 18:18:37;;;;;;;0.50;0.50;;;;;;;;;;7385354;19;20432;-86
2023/09/19 18:21:04;;;;;;;0.47;0.47;;;;;;;;;;7389772;19;20360;-86
2023/09/19 18:23:31;;;;;;;0.30;0.30;;;;;;;;;;7390670;19;20411;-86
2023/09/19 18:26:00;;;;;;;0.43;0.43;;;;;;;;;;7388450;19;20360;-85
2023/09/19 18:28:27;;;;;;;0.70;0.70;;;;;;;;;;7393081;19;20349;-87
2023/09/19 18:30:56;;;;;;;0.40;0.40;;;;;;;;;;7388371;19;20353;-86
2023/09/19 18:33:26;;;;;;;0.50;0.50;;;;;;;;;;7385361;19;20369;-87
2023/09/19 18:36:01;;;;;;;0.35;0.35;;;;;;;;;;7385586;19;20350;-89
2023/09/19 18:38:28;;;;;;;0.50;0.50;;;;;;;;;;7389839;19;20814;-89
2023/09/19 18:40:55;;;;;;;0.45;0.45;;;;;;;;;;7386865;19;20432;-91
2023/09/19 18:43:26;;;;;;;0.50;0.50;;;;;;;;;;7391291;19;20896;-88
2023/09/19 18:45:59;;;;;;;0.50;0.50;;;;;;;;;;7394763;19;20345;-89
2023/09/19 18:48:26;;;;;;;0.40;0.40;;;;;;;;;;7391384;19;20348;-89
2023/09/19 18:50:54;;;;;;;0.40;0.40;;;;;;;;;;7414453;19;20377;-89
2023/09/19 18:53:21;;;;;;;0.50;0.50;;;;;;;;;;7423035;19;20353;-90
2023/09/19 18:55:49;;;;;;;0.30;0.30;;;;;;;;;;7418371;19;20704;-90
2023/09/19 18:58:16;;;;;;;0.38;0.38;;;;;;;;;;7403494;19;20814;-91
2023/09/19 19:00:43;;;;;;;0.30;0.30;;;;;;;;;;7387606;19;20371;-92
2023/09/19 19:03:12;;;;;;;0.38;0.38;;;;;;;;;;7387014;19;20356;-91
2023/09/19 19:05:39;;;;;;;0.60;0.60;;;;;;;;;;7389208;19;20345;-91
2023/09/19 19:08:06;;;;;;;1.40;0.30;;;;;;;;;;7388796;19;20873;-91
2023/09/19 19:10:38;;;;;;;0.40;0.40;;;;;;;;;;7385865;19;20366;-92
2023/09/19 19:13:05;;;;;;;0.43;0.43;;;;;;;;;;7389764;19;20349;-91
2023/09/19 19:15:33;;;;;;;0.35;0.35;;;;;;;;;;7389971;19;20345;-91
2023/09/19 19:18:01;;;;;;;0.40;0.40;;;;;;;;;;7388716;19;20427;-89
2023/09/19 19:20:28;;;;;;;0.38;0.38;;;;;;;;;;7394060;19;20369;-88
2023/09/19 19:22:55;;;;;;;0.40;0.40;;;;;;;;;;7393602;19;20419;-89
2023/09/19 19:25:22;;;;;;;0.60;0.60;;;;;;;;;;7392746;19;20352;-91
2023/09/19 19:27:50;;;;;;;0.43;0.43;;;;;;;;;;7391701;19;20344;-91
2023/09/19 19:30:17;;;;;;;0.40;0.40;;;;;;;;;;7390162;19;20368;-91
2023/09/19 19:32:44;;;;;;;0.38;0.38;;;;;;;;;;7389080;19;20376;-91
2023/09/19 19:35:12;;;;;;;0.40;0.40;;;;;;;;;;7389042;19;20713;-91
2023/09/19 19:37:39;;;;;;;0.60;0.60;;;;;;;;;;7389663;19;20359;-90
2023/09/19 19:40:10;;;;;;;0.30;0.30;;;;;;;;;;7384886;19;20370;-90
2023/09/19 19:42:36;;;;;;;0.40;0.40;;;;;;;;;;7389178;19;20364;-90
2023/09/19 19:45:03;;;;;;;0.28;0.28;;;;;;;;;;7389685;19;20697;-91
2023/09/19 19:47:30;;;;;;;0.40;0.40;;;;;;;;;;7389351;19;20355;-90
2023/09/19 19:49:58;;;;;;;1.50;0.40;;;;;;;;;;7390266;19;20692;-90
2023/09/19 19:52:29;;;;;;;0.40;0.40;;;;;;;;;;7390081;19;20865;-90
2023/09/19 19:54:55;;;;;;;0.52;0.52;;;;;;;;;;7389798;19;20428;-91
2023/09/19 19:57:22;;;;;;;0.40;0.40;;;;;;;;;;7387642;19;20355;-91
2023/09/19 19:59:49;;;;;;;0.45;0.45;;;;;;;;;;7387861;19;20362;-91
2023/09/19 20:02:16;;;;;;;1.05;0.68;;;;;;;;;;7389562;19;20364;-89
2023/09/19 20:04:43;;;;;;;0.52;0.52;;;;;;;;;;7390440;19;20340;-89
2023/09/19 20:07:11;;;;;;;0.43;0.43;;;;;;;;;;7389884;19;20360;-89
2023/09/19 20:09:39;;;;;;;0.40;0.40;;;;;;;;;;7389790;19;20368;-89
2023/09/19 20:12:07;;;;;;;0.40;0.40;;;;;;;;;;7386459;19;20361;-89
2023/09/19 20:14:33;;;;;;;0.60;0.60;;;;;;;;;;7385565;19;20352;-89
2023/09/19 20:17:00;;;;;;;0.70;0.70;;;;;;;;;;7388851;19;20778;-89
2023/09/19 20:19:32;;;;;;;0.50;0.50;;;;;;;;;;7387285;19;20345;-89
2023/09/19 20:22:01;;;;;;;0.70;0.70;;;;;;;;;;7389084;19;20356;-89
2023/09/19 20:24:27;;;;;;;0.47;0.47;;;;;;;;;;7392989;19;20333;-89
2023/09/19 20:26:56;;;;;;;0.60;0.60;;;;;;;;;;7391420;19;20449;-88
2023/09/19 20:29:24;;;;;;;0.57;0.57;;;;;;;;;;7391490;19;20352;-89
2023/09/19 20:31:51;;;;;;;0.50;0.50;;;;;;;;;;7396149;19;20941;-90
2023/09/19 20:34:17;;;;;;;0.60;0.60;;;;;;;;;;7416419;19;20340;-87
2023/09/19 20:36:45;;;;;;;0.47;0.47;;;;;;;;;;7420069;19;20386;-88
2023/09/19 20:39:13;;;;;;;0.40;0.40;;;;;;;;;;7419882;19;20368;-87
2023/09/19 20:41:40;;;;;;;0.33;0.33;;;;;;;;;;7396284;19;20675;-89
2023/09/19 20:44:07;;;;;;;0.80;0.80;;;;;;;;;;7384359;19;20353;-90
2023/09/19 20:46:35;;;;;;;0.38;0.38;;;;;;;;;;7387024;19;20332;-90
2023/09/19 20:49:05;;;;;;;0.60;0.60;;;;;;;;;;7387019;19;20357;-90
2023/09/19 20:51:34;;;;;;;0.47;0.47;;;;;;;;;;7386937;19;20709;-90
2023/09/19 20:54:01;;;;;;;0.50;0.50;;;;;;;;;;7388251;19;20361;-90
2023/09/19 20:56:31;;;;;;;1.02;0.55;;;;;;;;;;7388298;19;20368;-89
2023/09/19 20:58:58;;;;;;;0.73;0.73;;;;;;;;;;7384571;19;20381;-89
2023/09/19 21:01:26;;;;;;;0.40;0.40;;;;;;;;;;7384681;19;20424;-89
2023/09/19 21:03:53;;;;;;;0.60;0.60;;;;;;;;;;7389733;19;20717;-88
2023/09/19 21:06:19;;;;;;;0.75;0.75;;;;;;;;;;7388713;19;20447;-90
2023/09/19 21:08:47;;;;;;;0.47;0.47;;;;;;;;;;7390737;19;20344;-89
2023/09/19 21:11:18;;;;;;;0.40;0.40;;;;;;;;;;7386814;19;20904;-89
2023/09/19 21:13:52;;;;;;;0.80;0.70;;;;;;;;;;7386092;19;20344;-89
2023/09/19 21:16:21;;;;;;;0.40;0.40;;;;;;;;;;7386186;19;20353;-89
2023/09/19 21:18:49;;;;;;;0.40;0.40;;;;;;;;;;7386122;19;20424;-89
2023/09/19 21:21:15;;;;;;;0.40;0.40;;;;;;;;;;7384367;19;20352;-89
2023/09/19 21:23:43;;;;;;;0.35;0.35;;;;;;;;;;7388655;19;20356;-90
2023/09/19 21:26:11;;;;;;;0.40;0.40;;;;;;;;;;7395329;19;20453;-91
2023/09/19 21:28:38;;;;;;;0.32;0.32;;;;;;;;;;7392482;19;20344;-89
2023/09/19 21:31:08;;;;;;;0.45;0.45;;;;;;;;;;7393635;19;20357;-90
2023/09/19 21:33:37;;;;;;;0.35;0.35;;;;;;;;;;7396648;19;20360;-90
2023/09/19 21:36:09;;;;;;;0.50;0.50;;;;;;;;;;7394053;19;20703;-90
2023/09/19 21:38:37;;;;;;;0.52;0.52;;;;;;;;;;7391825;19;20374;-90
2023/09/19 21:41:13;;;;;;;0.30;0.30;;;;;;;;;;7392858;19;20345;-91
2023/09/19 21:43:40;;;;;;;0.60;0.60;;;;;;;;;;7393094;19;20404;-89
2023/09/19 21:46:08;;;;;;;0.32;0.32;;;;;;;;;;7392287;19;20341;-89
2023/09/19 21:48:35;;;;;;;0.40;0.40;;;;;;;;;;7392724;19;20353;-91
2023/09/19 21:51:05;;;;;;;0.30;0.30;;;;;;;;;;7394375;19;20365;-91
2023/09/19 21:53:33;;;;;;;0.52;0.52;;;;;;;;;;7394282;19;20881;-89
2023/09/19 21:56:02;;;;;;;0.40;0.40;;;;;;;;;;7391418;19;20778;-89
2023/09/19 21:58:34;;;;;;;0.30;0.30;;;;;;;;;;7394024;19;20344;-89
2023/09/19 22:01:03;;;;;;;0.50;0.50;;;;;;;;;;7394039;19;20329;-89
2023/09/19 22:03:31;;;;;;;0.60;0.60;;;;;;;;;;7388521;19;20381;-89
2023/09/19 22:06:04;;;;;;;0.67;0.67;;;;;;;;;;7390152;19;20345;-90
2023/09/19 22:08:34;;;;;;;0.40;0.40;;;;;;;;;;7391144;19;20336;-90
2023/09/19 22:11:10;;;;;;;0.70;0.70;;;;;;;;;;7388291;19;20360;-90
2023/09/19 22:13:42;;;;;;;0.40;0.40;;;;;;;;;;7396113;19;20325;-90
2023/09/19 22:16:14;;;;;;;0.57;0.57;;;;;;;;;;7388894;19;20352;-89
2023/09/19 22:18:46;;;;;;;0.40;0.40;;;;;;;;;;7392668;19;20391;-88
2023/09/19 22:21:21;;;;;;;0.60;0.60;;;;;;;;;;7391011;19;20367;-90
2023/09/19 22:23:50;;;;;;;0.45;0.45;;;;;;;;;;7391257;19;20356;-89
2023/09/19 22:26:21;;;;;;;0.38;0.38;;;;;;;;;;7390263;19;20341;-89
2023/09/19 22:28:52;;;;;;;0.80;0.57;;;;;;;;;;7391368;19;20340;-89
2023/09/19 22:31:25;;;;;;;0.40;0.40;;;;;;;;;;7388109;19;20338;-90
2023/09/19 22:33:54;;;;;;;0.52;0.52;;;;;;;;;;7387632;19;20924;-89
2023/09/19 22:36:23;;;;;;;0.30;0.30;;;;;;;;;;7386111;19;20378;-90
2023/09/19 22:38:51;;;;;;;0.90;0.90;;;;;;;;;;7388705;19;20378;-90
2023/09/19 22:41:20;;;;;;;0.50;0.50;;;;;;;;;;7387883;19;20356;-90
2023/09/19 22:43:50;;;;;;;0.50;0.50;;;;;;;;;;7390682;19;20387;-89
2023/09/19 22:46:18;;;;;;;1.23;0.68;;;;;;;;;;7391474;19;20438;-90
2023/09/19 22:48:48;;;;;;;0.70;0.70;;;;;;;;;;7393695;19;20424;-90
2023/09/19 22:51:33;;;;;;;0.47;0.47;;;;;;;;;;7392806;19;20420;-91
2023/09/19 22:54:00;;;;;;;0.43;0.43;;;;;;;;;;7391435;19;20370;-90
2023/09/19 22:56:27;;;;;;;0.45;0.45;;;;;;;;;;7388271;19;20743;-90
2023/09/19 22:58:55;;;;;;;0.40;0.40;;;;;;;;;;7387723;19;20357;-90
2023/09/19 23:01:34;;;;;;;0.40;0.40;;;;;;;;;;7390997;19;20352;-90
2023/09/19 23:06:33;;;;;;;0.50;0.50;;;;;;;;;;7391443;19;20374;-90
2023/09/19 23:09:00;;;;;;;0.50;0.50;;;;;;;;;;7389059;19;20691;-90
2023/09/19 23:11:27;;;;;;;0.40;0.40;;;;;;;;;;7388516;19;20360;-89
2023/09/19 23:13:54;;;;;;;0.35;0.35;;;;;;;;;;7389900;19;20372;-90
2023/09/19 23:16:32;;;;;;;0.50;0.50;;;;;;;;;;7390176;19;20360;-90
2023/09/19 23:19:04;;;;;;;0.35;0.35;;;;;;;;;;7392271;19;20369;-89
2023/09/19 23:21:32;;;;;;;0.60;0.60;;;;;;;;;;7390090;19;20345;-89
2023/09/19 23:23:59;;;;;;;0.30;0.30;;;;;;;;;;7395922;19;20396;-90
2023/09/19 23:26:26;;;;;;;0.38;0.38;;;;;;;;;;7393247;19;20360;-90
2023/09/19 23:28:53;;;;;;;0.40;0.40;;;;;;;;;;7394104;19;20750;-88
2023/09/19 23:31:21;;;;;;;0.30;0.30;;;;;;;;;;7392333;19;20348;-89
2023/09/19 23:33:50;;;;;;;0.63;0.50;;;;;;;;;;7393653;19;20889;-90
2023/09/19 23:36:17;;;;;;;0.30;0.30;;;;;;;;;;7393203;19;20663;-88
2023/09/19 23:38:46;;;;;;;0.30;0.30;;;;;;;;;;7391610;19;20377;-90
2023/09/19 23:41:20;;;;;;;0.68;0.68;;;;;;;;;;7391903;19;20687;-90
2023/09/19 23:43:52;;;;;;;0.80;0.80;;;;;;;;;;7390968;19;20378;-89
2023/09/19 23:46:20;;;;;;;0.57;0.52;;;;;;;;;;7388446;19;20406;-90
2023/09/19 23:48:47;;;;;;;0.63;0.55;;;;;;;;;;7389836;19;20391;-90
2023/09/19 23:51:19;;;;;;;0.50;0.50;;;;;;;;;;7391169;19;20793;-90
2023/09/19 23:53:46;;;;;;;0.40;0.40;;;;;;;;;;7390123;19;20355;-90
2023/09/19 23:56:15;;;;;;;0.30;0.30;;;;;;;;;;7388940;19;20361;-90
2023/09/19 23:58:46;;;;;;;0.50;0.50;;;;;;;;;;7389097;19;20357;-91
